Time;durP1;ratioP1;P1;durP2;ratioP2;P2;SDS_P1;SDS_P2;PMS_P1;PMS_P2;Temp;Humidity;BMP_temperature;BMP_pressure;BME280_temperature;BME280_humidity;BME280_pressure;Samples;Min_cycle;Max_cycle;Signal;HPM_P1;HPM_P2
2022/08/20 00:01:00;;;;;;;13.82;8.82;;;;;;;;;;5035767;28;20517;-75
2022/08/20 00:03:29;;;;;;;12.98;8.68;;;;;;;;;;5035709;28;20076;-75
2022/08/20 00:06:00;;;;;;;12.35;8.23;;;;;;;;;;5035593;28;20041;-73
2022/08/20 00:08:26;;;;;;;13.15;8.43;;;;;;;;;;5052400;28;20599;-75
2022/08/20 00:10:53;;;;;;;15.50;7.82;;;;;;;;;;5052278;28;20033;-74
2022/08/20 00:13:21;;;;;;;14.52;8.45;;;;;;;;;;5051350;28;20041;-75
2022/08/20 00:15:48;;;;;;;14.18;8.20;;;;;;;;;;5052173;28;20047;-75
2022/08/20 00:18:14;;;;;;;14.05;9.07;;;;;;;;;;5051817;28;20033;-75
2022/08/20 00:20:42;;;;;;;16.38;8.25;;;;;;;;;;5051916;28;20033;-75
2022/08/20 00:23:09;;;;;;;15.68;8.05;;;;;;;;;;5052778;28;20040;-75
2022/08/20 00:25:35;;;;;;;16.08;9.15;;;;;;;;;;5051630;28;20044;-75
2022/08/20 00:28:02;;;;;;;13.18;8.73;;;;;;;;;;5051759;28;20095;-75
2022/08/20 00:30:31;;;;;;;12.95;8.13;;;;;;;;;;5051386;28;20124;-75
2022/08/20 00:33:02;;;;;;;13.35;8.23;;;;;;;;;;5051581;28;20044;-75
2022/08/20 00:35:30;;;;;;;13.60;8.63;;;;;;;;;;5050274;28;20040;-75
2022/08/20 00:37:57;;;;;;;17.63;8.23;;;;;;;;;;5067857;28;20072;-75
2022/08/20 00:40:25;;;;;;;16.90;9.50;;;;;;;;;;5062684;28;20102;-75
2022/08/20 00:42:54;;;;;;;15.10;8.10;;;;;;;;;;5034855;28;20036;-75
2022/08/20 00:45:21;;;;;;;15.43;8.20;;;;;;;;;;5034256;28;20048;-75
2022/08/20 00:47:47;;;;;;;16.38;9.00;;;;;;;;;;5034547;28;20548;-75
2022/08/20 00:50:14;;;;;;;16.25;8.68;;;;;;;;;;5050867;28;20041;-75
2022/08/20 00:52:43;;;;;;;19.15;8.50;;;;;;;;;;5050800;28;20036;-76
2022/08/20 00:55:11;;;;;;;13.45;7.40;;;;;;;;;;5050508;28;20045;-75
2022/08/20 00:57:42;;;;;;;12.45;7.50;;;;;;;;;;5051133;28;20045;-75
2022/08/20 01:00:15;;;;;;;15.52;6.90;;;;;;;;;;5050961;28;20048;-75
2022/08/20 01:02:41;;;;;;;16.75;7.68;;;;;;;;;;5051082;28;20055;-75
2022/08/20 01:05:08;;;;;;;17.70;7.53;;;;;;;;;;5050352;28;20090;-75
2022/08/20 01:07:35;;;;;;;18.65;7.63;;;;;;;;;;5050791;28;20072;-75
2022/08/20 01:10:04;;;;;;;17.08;7.22;;;;;;;;;;5050950;28;20068;-75
2022/08/20 01:12:31;;;;;;;17.67;7.72;;;;;;;;;;5050555;28;20099;-75
2022/08/20 01:14:59;;;;;;;16.42;6.68;;;;;;;;;;5034268;28;20037;-75
2022/08/20 01:17:27;;;;;;;12.65;6.45;;;;;;;;;;5050180;28;20045;-75
2022/08/20 01:19:56;;;;;;;12.23;6.43;;;;;;;;;;5067443;28;20051;-75
2022/08/20 01:25:20;;;;;;;13.02;6.75;;;;;;;;;;5037211;28;20429;-75
2022/08/20 01:27:46;;;;;;;15.65;6.40;;;;;;;;;;5050321;28;20091;-75
2022/08/20 01:30:13;;;;;;;16.75;6.30;;;;;;;;;;5050323;28;20029;-75
2022/08/20 01:32:39;;;;;;;16.83;7.30;;;;;;;;;;5050747;28;20045;-75
2022/08/20 01:35:06;;;;;;;14.50;6.70;;;;;;;;;;5050806;28;20402;-75
2022/08/20 01:37:32;;;;;;;14.00;6.43;;;;;;;;;;5049950;28;20036;-75
2022/08/20 01:39:58;;;;;;;11.80;6.53;;;;;;;;;;5050373;28;20033;-75
2022/08/20 01:42:27;;;;;;;14.88;6.72;;;;;;;;;;5033914;28;20029;-75
2022/08/20 01:44:53;;;;;;;14.18;7.45;;;;;;;;;;5050713;28;20485;-75
2022/08/20 01:47:27;;;;;;;15.48;7.00;;;;;;;;;;5049867;28;20051;-75
2022/08/20 01:49:56;;;;;;;14.25;6.55;;;;;;;;;;5050916;28;20079;-75
2022/08/20 01:52:26;;;;;;;13.15;6.55;;;;;;;;;;5042970;28;20041;-75
2022/08/20 01:54:52;;;;;;;13.00;7.00;;;;;;;;;;5050312;28;20077;-75
2022/08/20 01:57:19;;;;;;;13.65;6.28;;;;;;;;;;5017141;28;20037;-75
2022/08/20 01:59:47;;;;;;;19.40;7.40;;;;;;;;;;5040713;28;20041;-75
2022/08/20 02:02:13;;;;;;;15.98;7.82;;;;;;;;;;5049275;28;20039;-74
2022/08/20 02:04:39;;;;;;;16.92;7.72;;;;;;;;;;5032841;28;20092;-75
2022/08/20 02:07:07;;;;;;;17.25;7.32;;;;;;;;;;5048235;28;20037;-75
2022/08/20 02:09:35;;;;;;;15.50;6.03;;;;;;;;;;5045955;28;20087;-75
2022/08/20 02:12:02;;;;;;;14.15;6.07;;;;;;;;;;5050514;28;20076;-75
2022/08/20 02:14:28;;;;;;;15.73;7.20;;;;;;;;;;5050258;28;20191;-75
2022/08/20 02:16:57;;;;;;;16.17;7.07;;;;;;;;;;5053181;28;20095;-75
2022/08/20 02:19:25;;;;;;;11.13;7.43;;;;;;;;;;5053954;28;20401;-75
2022/08/20 02:21:54;;;;;;;16.30;7.68;;;;;;;;;;5054426;28;20040;-75
2022/08/20 02:24:20;;;;;;;14.43;7.85;;;;;;;;;;5053639;28;20041;-75
2022/08/20 02:26:46;;;;;;;13.55;8.02;;;;;;;;;;5054289;28;20090;-75
2022/08/20 02:29:13;;;;;;;15.45;7.38;;;;;;;;;;5037528;28;20044;-75
2022/08/20 02:31:40;;;;;;;16.17;7.97;;;;;;;;;;5054080;28;20735;-75
2022/08/20 02:34:08;;;;;;;14.05;7.45;;;;;;;;;;5053699;28;20079;-75
2022/08/20 02:36:36;;;;;;;17.98;8.10;;;;;;;;;;5053181;28;20029;-75
2022/08/20 02:39:04;;;;;;;15.93;7.63;;;;;;;;;;5053503;28;20037;-75
2022/08/20 02:41:30;;;;;;;11.80;7.53;;;;;;;;;;5053171;28;20079;-75
2022/08/20 02:43:56;;;;;;;13.80;7.55;;;;;;;;;;5054258;28;20489;-75
2022/08/20 02:46:22;;;;;;;19.33;8.25;;;;;;;;;;5019442;28;20037;-74
2022/08/20 02:48:48;;;;;;;20.50;8.00;;;;;;;;;;5052726;28;20063;-75
2022/08/20 02:51:14;;;;;;;15.90;7.32;;;;;;;;;;5048211;28;20037;-75
2022/08/20 02:53:41;;;;;;;15.70;7.90;;;;;;;;;;5053150;28;20041;-75
2022/08/20 02:56:07;;;;;;;19.67;7.88;;;;;;;;;;5053488;28;20072;-75
2022/08/20 02:58:34;;;;;;;16.33;8.13;;;;;;;;;;5053023;28;20112;-75
2022/08/20 03:01:00;;;;;;;18.05;8.43;;;;;;;;;;5053114;28;20116;-75
2022/08/20 03:03:26;;;;;;;19.13;7.97;;;;;;;;;;5065717;28;20040;-75
2022/08/20 03:05:54;;;;;;;18.25;8.70;;;;;;;;;;5053300;28;20045;-75
2022/08/20 03:08:20;;;;;;;14.27;7.32;;;;;;;;;;5036351;28;20379;-75
2022/08/20 03:10:47;;;;;;;17.55;8.20;;;;;;;;;;5052695;28;20048;-75
2022/08/20 03:13:14;;;;;;;16.05;7.93;;;;;;;;;;5054148;28;20099;-74
2022/08/20 03:15:42;;;;;;;17.73;8.30;;;;;;;;;;5053852;28;20072;-75
2022/08/20 03:18:08;;;;;;;17.10;8.10;;;;;;;;;;5036682;28;20037;-75
2022/08/20 03:20:34;;;;;;;14.38;7.90;;;;;;;;;;5035583;28;20029;-75
2022/08/20 03:23:00;;;;;;;16.10;7.15;;;;;;;;;;5053279;28;20041;-75
2022/08/20 03:25:27;;;;;;;15.18;7.68;;;;;;;;;;5052666;28;20390;-75
2022/08/20 03:27:54;;;;;;;16.25;7.60;;;;;;;;;;5035963;28;20067;-75
2022/08/20 03:30:21;;;;;;;15.27;8.00;;;;;;;;;;5053461;28;20120;-75
2022/08/20 03:32:47;;;;;;;12.77;7.07;;;;;;;;;;5052525;28;20052;-75
2022/08/20 03:35:15;;;;;;;12.75;6.85;;;;;;;;;;5052702;28;20041;-75
2022/08/20 03:37:41;;;;;;;15.80;7.07;;;;;;;;;;5052582;28;20068;-75
2022/08/20 03:40:13;;;;;;;13.25;7.35;;;;;;;;;;5052282;28;20044;-75
2022/08/20 03:42:40;;;;;;;10.05;6.53;;;;;;;;;;5052074;28;20057;-75
2022/08/20 03:45:07;;;;;;;13.10;6.88;;;;;;;;;;5052594;28;20183;-75
2022/08/20 03:47:33;;;;;;;14.35;6.90;;;;;;;;;;5051598;28;20061;-75
2022/08/20 03:50:00;;;;;;;14.02;5.90;;;;;;;;;;5052290;28;20048;-75
2022/08/20 03:52:27;;;;;;;11.35;6.68;;;;;;;;;;5035819;28;20130;-74
2022/08/20 03:54:53;;;;;;;13.00;6.18;;;;;;;;;;5051587;28;20047;-74
2022/08/20 03:57:19;;;;;;;15.27;6.80;;;;;;;;;;5052299;28;20037;-75
2022/08/20 03:59:45;;;;;;;12.75;6.43;;;;;;;;;;5051692;28;20041;-75
2022/08/20 04:02:11;;;;;;;14.10;6.05;;;;;;;;;;5051937;28;20040;-75
2022/08/20 04:04:39;;;;;;;12.38;6.22;;;;;;;;;;5035346;28;20036;-75
2022/08/20 04:07:09;;;;;;;11.73;5.97;;;;;;;;;;5040083;28;20088;-74
2022/08/20 04:09:36;;;;;;;13.95;6.00;;;;;;;;;;5041394;28;20033;-74
2022/08/20 04:12:02;;;;;;;9.55;5.28;;;;;;;;;;5044952;28;20529;-74
2022/08/20 04:14:28;;;;;;;12.95;5.82;;;;;;;;;;5047295;28;20043;-74
2022/08/20 04:16:54;;;;;;;16.30;5.45;;;;;;;;;;5043364;28;20037;-74
2022/08/20 04:19:20;;;;;;;15.88;5.95;;;;;;;;;;5038677;28;20045;-74
2022/08/20 04:21:47;;;;;;;15.13;5.40;;;;;;;;;;5043638;28;20069;-74
2022/08/20 04:24:14;;;;;;;12.98;5.55;;;;;;;;;;5039585;28;20038;-74
2022/08/20 04:26:41;;;;;;;16.55;5.70;;;;;;;;;;5041831;28;20048;-74
2022/08/20 04:29:07;;;;;;;12.88;5.50;;;;;;;;;;5044274;28;20037;-74
2022/08/20 04:31:33;;;;;;;10.02;5.55;;;;;;;;;;5046246;28;20044;-73
2022/08/20 04:34:05;;;;;;;15.68;5.90;;;;;;;;;;5051427;28;20045;-75
2022/08/20 04:36:31;;;;;;;10.65;5.35;;;;;;;;;;5048716;28;20497;-75
2022/08/20 04:38:57;;;;;;;12.43;5.55;;;;;;;;;;5050259;28;20029;-74
2022/08/20 04:41:23;;;;;;;11.32;5.47;;;;;;;;;;5039243;28;20029;-74
2022/08/20 04:43:49;;;;;;;12.07;5.72;;;;;;;;;;5034218;28;20048;-74
2022/08/20 04:46:15;;;;;;;11.02;6.05;;;;;;;;;;5040150;28;20041;-74
2022/08/20 04:48:41;;;;;;;10.93;5.97;;;;;;;;;;5047503;28;20064;-74
2022/08/20 04:51:13;;;;;;;15.18;6.00;;;;;;;;;;5048859;28;20053;-74
2022/08/20 04:53:40;;;;;;;13.23;5.40;;;;;;;;;;5039634;28;20431;-74
2022/08/20 04:56:06;;;;;;;13.45;6.10;;;;;;;;;;5042054;28;20123;-74
2022/08/20 04:58:35;;;;;;;11.90;4.90;;;;;;;;;;5045148;28;20079;-75
2022/08/20 05:01:09;;;;;;;12.05;5.00;;;;;;;;;;5048183;28;20401;-74
2022/08/20 05:03:36;;;;;;;13.05;5.50;;;;;;;;;;5050213;28;20094;-74
2022/08/20 05:06:04;;;;;;;14.00;5.10;;;;;;;;;;5050937;28;20516;-74
2022/08/20 05:08:31;;;;;;;12.73;4.97;;;;;;;;;;5050542;28;20045;-74
2022/08/20 05:10:57;;;;;;;13.90;5.55;;;;;;;;;;5034027;28;20046;-74
2022/08/20 05:13:24;;;;;;;12.73;5.45;;;;;;;;;;5050982;28;20398;-74
2022/08/20 05:15:51;;;;;;;13.20;5.30;;;;;;;;;;5049963;28;20033;-75
2022/08/20 05:18:21;;;;;;;10.85;5.35;;;;;;;;;;5051029;28;20136;-75
2022/08/20 05:20:47;;;;;;;13.60;6.00;;;;;;;;;;5033782;28;20033;-74
2022/08/20 05:23:14;;;;;;;15.80;5.55;;;;;;;;;;5050845;28;20051;-74
2022/08/20 05:25:41;;;;;;;13.57;5.50;;;;;;;;;;5051009;28;20116;-74
2022/08/20 05:28:11;;;;;;;10.15;5.20;;;;;;;;;;5050419;28;20048;-74
2022/08/20 05:30:37;;;;;;;11.73;5.00;;;;;;;;;;5034093;28;20044;-74
2022/08/20 05:33:05;;;;;;;10.90;5.15;;;;;;;;;;5050247;28;20044;-74
2022/08/20 05:35:33;;;;;;;11.35;4.80;;;;;;;;;;5050891;28;20041;-74
2022/08/20 05:38:00;;;;;;;13.15;4.40;;;;;;;;;;5031314;28;20116;-74
2022/08/20 05:40:27;;;;;;;9.13;4.10;;;;;;;;;;5049271;28;20108;-75
2022/08/20 05:42:53;;;;;;;10.05;4.20;;;;;;;;;;5016249;28;20037;-74
2022/08/20 05:45:20;;;;;;;12.32;4.43;;;;;;;;;;5049365;28;20049;-75
2022/08/20 05:47:47;;;;;;;9.68;4.00;;;;;;;;;;5047119;28;20176;-74
2022/08/20 05:50:13;;;;;;;10.40;3.60;;;;;;;;;;5041127;28;20094;-75
2022/08/20 05:52:40;;;;;;;7.28;3.72;;;;;;;;;;5051706;28;20037;-75
2022/08/20 05:55:07;;;;;;;11.55;3.70;;;;;;;;;;5053160;28;20505;-75
2022/08/20 05:57:33;;;;;;;7.47;2.97;;;;;;;;;;5053910;28;20037;-76
2022/08/20 06:00:04;;;;;;;7.80;3.10;;;;;;;;;;5052549;28;20029;-75
2022/08/20 06:05:15;;;;;;;8.27;2.65;;;;;;;;;;5051418;28;20061;-75
2022/08/20 06:07:41;;;;;;;8.07;2.60;;;;;;;;;;5040322;28;20069;-75
2022/08/20 06:10:09;;;;;;;10.00;2.95;;;;;;;;;;5045904;28;20497;-74
2022/08/20 06:12:36;;;;;;;6.65;2.55;;;;;;;;;;5046960;28;20448;-75
2022/08/20 06:15:02;;;;;;;9.25;2.90;;;;;;;;;;5059945;28;20382;-75
2022/08/20 06:17:29;;;;;;;7.55;2.85;;;;;;;;;;5048051;28;20551;-75
2022/08/20 06:19:55;;;;;;;10.25;2.83;;;;;;;;;;5036651;28;20051;-74
2022/08/20 06:22:21;;;;;;;8.35;2.90;;;;;;;;;;5042237;28;20039;-75
2022/08/20 06:24:47;;;;;;;10.55;3.10;;;;;;;;;;5043982;28;20106;-75
2022/08/20 06:27:14;;;;;;;7.05;2.55;;;;;;;;;;5042660;28;20048;-75
2022/08/20 06:29:41;;;;;;;6.03;2.30;;;;;;;;;;5039102;28;20044;-75
2022/08/20 06:32:07;;;;;;;6.88;2.05;;;;;;;;;;5044682;28;20037;-75
2022/08/20 06:34:33;;;;;;;7.22;2.08;;;;;;;;;;5038617;28;20048;-75
2022/08/20 06:36:59;;;;;;;9.90;2.08;;;;;;;;;;5050726;28;20056;-75
2022/08/20 06:39:28;;;;;;;5.68;1.75;;;;;;;;;;5040528;28;20108;-75
2022/08/20 06:41:57;;;;;;;6.65;2.17;;;;;;;;;;5045215;28;20036;-76
2022/08/20 06:44:23;;;;;;;8.68;2.00;;;;;;;;;;5046996;28;20503;-76
2022/08/20 06:46:49;;;;;;;6.53;1.75;;;;;;;;;;5039948;28;20052;-75
2022/08/20 06:49:15;;;;;;;9.82;2.03;;;;;;;;;;5041220;28;20041;-75
2022/08/20 06:51:41;;;;;;;6.45;2.20;;;;;;;;;;5045052;28;20410;-75
2022/08/20 06:54:08;;;;;;;6.55;1.85;;;;;;;;;;5050810;28;20490;-75
2022/08/20 06:56:34;;;;;;;7.88;1.75;;;;;;;;;;5052399;28;20055;-75
2022/08/20 06:59:00;;;;;;;8.32;2.08;;;;;;;;;;5042801;28;20068;-76
2022/08/20 07:01:26;;;;;;;6.70;1.63;;;;;;;;;;5048288;28;20110;-76
2022/08/20 07:03:52;;;;;;;8.10;1.90;;;;;;;;;;5051796;28;20041;-75
2022/08/20 07:06:18;;;;;;;4.95;1.40;;;;;;;;;;5052520;28;20049;-76
2022/08/20 07:08:44;;;;;;;8.18;1.45;;;;;;;;;;5054011;28;20033;-76
2022/08/20 07:11:11;;;;;;;3.88;1.05;;;;;;;;;;5052303;28;20451;-76
2022/08/20 07:13:37;;;;;;;4.05;1.13;;;;;;;;;;5035401;28;20124;-76
2022/08/20 07:16:06;;;;;;;3.85;1.20;;;;;;;;;;5035038;28;20072;-76
2022/08/20 07:18:32;;;;;;;6.03;1.17;;;;;;;;;;5053585;28;20036;-76
2022/08/20 07:20:58;;;;;;;7.78;1.10;;;;;;;;;;5052003;28;20141;-74
2022/08/20 07:23:25;;;;;;;4.45;1.23;;;;;;;;;;5051936;28;20048;-74
2022/08/20 07:25:52;;;;;;;5.50;1.20;;;;;;;;;;5051669;28;20044;-74
2022/08/20 07:28:20;;;;;;;6.85;1.48;;;;;;;;;;5052070;28;20056;-74
2022/08/20 07:33:31;;;;;;;5.57;1.15;;;;;;;;;;5051629;28;20037;-75
2022/08/20 07:35:58;;;;;;;5.00;1.20;;;;;;;;;;5051501;28;20119;-75
2022/08/20 07:38:25;;;;;;;6.65;1.38;;;;;;;;;;5052362;28;20498;-75
2022/08/20 07:40:52;;;;;;;5.40;1.52;;;;;;;;;;5052101;28;20048;-75
2022/08/20 07:43:21;;;;;;;5.05;1.15;;;;;;;;;;5051548;28;20611;-75
2022/08/20 07:45:48;;;;;;;3.58;0.90;;;;;;;;;;5034196;28;20083;-75
2022/08/20 07:48:14;;;;;;;4.25;1.17;;;;;;;;;;5010667;28;1178053;-75
2022/08/20 07:50:41;;;;;;;4.72;1.05;;;;;;;;;;5053309;28;20048;-75
2022/08/20 07:53:07;;;;;;;6.32;0.95;;;;;;;;;;5051674;28;20409;-76
2022/08/20 07:55:33;;;;;;;4.03;1.10;;;;;;;;;;5050768;28;20033;-75
2022/08/20 07:58:05;;;;;;;5.10;1.38;;;;;;;;;;5051252;28;20083;-76
2022/08/20 08:00:31;;;;;;;4.15;1.00;;;;;;;;;;5052256;28;20033;-76
2022/08/20 08:02:58;;;;;;;5.00;1.20;;;;;;;;;;5052553;28;20048;-77
2022/08/20 08:05:25;;;;;;;5.22;1.05;;;;;;;;;;5052068;28;20045;-77
2022/08/20 08:07:51;;;;;;;4.97;1.20;;;;;;;;;;5052060;28;20131;-77
2022/08/20 08:10:19;;;;;;;4.97;1.13;;;;;;;;;;5053162;28;20040;-77
2022/08/20 08:12:47;;;;;;;3.75;1.10;;;;;;;;;;5044601;28;20478;-77
2022/08/20 08:15:16;;;;;;;4.57;1.20;;;;;;;;;;5050186;28;20120;-77
2022/08/20 08:17:43;;;;;;;4.25;1.02;;;;;;;;;;5044288;28;20079;-77
2022/08/20 08:20:11;;;;;;;4.97;1.25;;;;;;;;;;5042472;28;20033;-76
2022/08/20 08:22:38;;;;;;;5.00;1.38;;;;;;;;;;5045852;28;20037;-77
2022/08/20 08:25:05;;;;;;;5.88;1.20;;;;;;;;;;5040490;28;20037;-76
2022/08/20 08:27:32;;;;;;;4.90;1.02;;;;;;;;;;5043162;28;20091;-77
2022/08/20 08:29:59;;;;;;;7.22;1.73;;;;;;;;;;5042937;28;20048;-77
2022/08/20 08:32:25;;;;;;;4.93;1.50;;;;;;;;;;5042990;28;20045;-77
2022/08/20 08:34:52;;;;;;;4.72;1.10;;;;;;;;;;5037731;28;20128;-77
2022/08/20 08:37:18;;;;;;;7.00;1.60;;;;;;;;;;5050138;28;20037;-77
2022/08/20 08:39:44;;;;;;;4.75;1.10;;;;;;;;;;5044711;28;20033;-78
2022/08/20 08:42:24;;;;;;;5.47;1.35;;;;;;;;;;5048916;28;20040;-77
2022/08/20 08:44:52;;;;;;;5.55;1.35;;;;;;;;;;5044353;28;20124;-75
2022/08/20 08:47:24;;;;;;;3.92;0.93;;;;;;;;;;5042344;28;20084;-77
2022/08/20 08:49:50;;;;;;;7.90;1.35;;;;;;;;;;5046136;28;20468;-78
2022/08/20 08:52:21;;;;;;;4.40;1.20;;;;;;;;;;5047453;28;20033;-78
2022/08/20 08:54:48;;;;;;;5.15;1.35;;;;;;;;;;5037895;28;20041;-78
2022/08/20 08:57:15;;;;;;;4.80;1.38;;;;;;;;;;5039107;28;20112;-78
2022/08/20 08:59:42;;;;;;;4.53;1.30;;;;;;;;;;5046076;28;20087;-76
2022/08/20 09:02:18;;;;;;;3.65;1.10;;;;;;;;;;5033197;28;20119;-76
2022/08/20 09:04:44;;;;;;;3.47;1.10;;;;;;;;;;5051089;28;20546;-77
2022/08/20 09:07:13;;;;;;;4.72;1.20;;;;;;;;;;5050836;28;20098;-77
2022/08/20 09:09:41;;;;;;;6.47;1.40;;;;;;;;;;5050496;28;20047;-78
2022/08/20 09:12:17;;;;;;;4.88;1.20;;;;;;;;;;5034271;28;20048;-78
2022/08/20 09:14:45;;;;;;;4.70;1.27;;;;;;;;;;5042276;28;20086;-79
2022/08/20 09:17:12;;;;;;;5.93;1.35;;;;;;;;;;5050625;28;20040;-79
2022/08/20 09:19:38;;;;;;;4.95;1.20;;;;;;;;;;5034663;28;20064;-77
2022/08/20 09:22:11;;;;;;;4.40;1.10;;;;;;;;;;5034544;28;20048;-77
2022/08/20 09:24:37;;;;;;;4.28;1.20;;;;;;;;;;5050327;28;20037;-77
2022/08/20 09:27:03;;;;;;;6.00;1.15;;;;;;;;;;5034246;28;20049;-77
2022/08/20 09:29:31;;;;;;;4.55;1.05;;;;;;;;;;5050715;28;20075;-76
2022/08/20 09:32:15;;;;;;;4.75;1.42;;;;;;;;;;5033543;28;20087;-77
2022/08/20 09:34:43;;;;;;;3.70;1.15;;;;;;;;;;5040964;28;20554;-77
2022/08/20 09:37:09;;;;;;;2.80;0.80;;;;;;;;;;5050565;28;20534;-77
2022/08/20 09:39:35;;;;;;;4.22;0.90;;;;;;;;;;5049996;28;20048;-76
2022/08/20 09:42:16;;;;;;;4.03;1.05;;;;;;;;;;5050508;28;20066;-76
2022/08/20 09:44:42;;;;;;;4.15;1.17;;;;;;;;;;5049476;28;20049;-76
2022/08/20 09:47:08;;;;;;;6.47;1.10;;;;;;;;;;5048171;28;20075;-76
2022/08/20 09:49:38;;;;;;;6.07;1.33;;;;;;;;;;5049963;28;20076;-76
2022/08/20 09:52:05;;;;;;;7.35;1.33;;;;;;;;;;5047925;28;20072;-74
2022/08/20 09:54:32;;;;;;;7.22;1.40;;;;;;;;;;5047155;28;20481;-76
2022/08/20 09:56:59;;;;;;;4.47;1.10;;;;;;;;;;5048266;28;20486;-76
2022/08/20 09:59:26;;;;;;;6.35;1.50;;;;;;;;;;5047503;28;20044;-75
2022/08/20 10:01:52;;;;;;;6.35;1.40;;;;;;;;;;5049113;28;21572;-76
2022/08/20 10:04:18;;;;;;;5.50;1.35;;;;;;;;;;5044028;28;20398;-76
2022/08/20 10:06:44;;;;;;;5.50;1.25;;;;;;;;;;5044845;28;20047;-76
2022/08/20 10:09:10;;;;;;;6.40;1.48;;;;;;;;;;5040908;28;20037;-76
2022/08/20 10:11:36;;;;;;;5.20;1.25;;;;;;;;;;5027867;28;20279;-76
2022/08/20 10:14:02;;;;;;;4.30;1.30;;;;;;;;;;5041887;28;20044;-76
2022/08/20 10:16:28;;;;;;;6.78;1.38;;;;;;;;;;5033956;28;20486;-77
2022/08/20 10:18:54;;;;;;;6.47;1.35;;;;;;;;;;5048939;28;20064;-75
2022/08/20 10:21:21;;;;;;;6.70;1.35;;;;;;;;;;5048947;28;20421;-76
2022/08/20 10:23:48;;;;;;;5.55;1.40;;;;;;;;;;5049033;28;20505;-77
2022/08/20 10:26:15;;;;;;;7.32;1.20;;;;;;;;;;5049789;28;20374;-76
2022/08/20 10:28:42;;;;;;;5.80;1.20;;;;;;;;;;5049182;28;20382;-76
2022/08/20 10:31:09;;;;;;;4.50;1.20;;;;;;;;;;5065414;28;20134;-76
2022/08/20 10:33:35;;;;;;;6.22;1.40;;;;;;;;;;5048991;28;20509;-76
2022/08/20 10:36:09;;;;;;;5.10;1.40;;;;;;;;;;5048371;28;20112;-76
2022/08/20 10:38:35;;;;;;;7.13;1.30;;;;;;;;;;5052351;28;20121;-76
2022/08/20 10:41:01;;;;;;;7.22;1.40;;;;;;;;;;5063147;28;20449;-76
2022/08/20 10:43:27;;;;;;;5.68;1.58;;;;;;;;;;5048382;28;20041;-76
2022/08/20 10:45:53;;;;;;;7.70;1.40;;;;;;;;;;5041822;28;20044;-77
2022/08/20 10:48:19;;;;;;;6.03;1.20;;;;;;;;;;5037480;28;20593;-75
2022/08/20 10:50:45;;;;;;;5.47;1.55;;;;;;;;;;5045130;28;20115;-76
2022/08/20 10:53:11;;;;;;;5.63;1.30;;;;;;;;;;5043609;28;20485;-73
2022/08/20 10:55:38;;;;;;;5.25;1.15;;;;;;;;;;5053489;28;20556;-75
2022/08/20 10:58:05;;;;;;;6.88;1.70;;;;;;;;;;5053669;28;20063;-76
2022/08/20 11:00:31;;;;;;;4.28;1.40;;;;;;;;;;5052940;28;20041;-75
2022/08/20 11:02:57;;;;;;;5.28;1.30;;;;;;;;;;5053974;28;20037;-75
2022/08/20 11:05:23;;;;;;;6.60;1.50;;;;;;;;;;5052824;28;20037;-75
2022/08/20 11:07:49;;;;;;;5.53;1.33;;;;;;;;;;5054308;28;20049;-75
2022/08/20 11:10:16;;;;;;;6.13;1.40;;;;;;;;;;5037166;28;20508;-75
2022/08/20 11:12:42;;;;;;;7.70;1.30;;;;;;;;;;5052836;28;20044;-75
2022/08/20 11:15:08;;;;;;;4.15;1.38;;;;;;;;;;5032692;28;20044;-75
2022/08/20 11:17:35;;;;;;;5.88;1.30;;;;;;;;;;5039657;28;20509;-75
2022/08/20 11:20:03;;;;;;;4.10;1.27;;;;;;;;;;5043285;28;20086;-75
2022/08/20 11:22:29;;;;;;;5.35;1.08;;;;;;;;;;5054676;28;20402;-75
2022/08/20 11:24:55;;;;;;;4.25;1.00;;;;;;;;;;5040877;28;20168;-75
2022/08/20 11:27:23;;;;;;;6.30;1.50;;;;;;;;;;5038293;28;20045;-75
2022/08/20 11:29:50;;;;;;;4.43;1.30;;;;;;;;;;5039326;28;20644;-74
2022/08/20 11:32:16;;;;;;;4.72;1.25;;;;;;;;;;5047628;28;20505;-75
2022/08/20 11:34:42;;;;;;;4.63;1.38;;;;;;;;;;5050276;28;20045;-75
2022/08/20 11:37:08;;;;;;;5.97;1.20;;;;;;;;;;5048727;28;20057;-75
2022/08/20 11:39:35;;;;;;;5.60;0.95;;;;;;;;;;5025286;28;20501;-75
2022/08/20 11:42:01;;;;;;;4.47;1.15;;;;;;;;;;5043277;28;20044;-75
2022/08/20 11:44:27;;;;;;;8.32;1.33;;;;;;;;;;5056848;28;20061;-75
2022/08/20 11:46:53;;;;;;;5.22;1.60;;;;;;;;;;5039411;28;20394;-75
2022/08/20 11:49:20;;;;;;;5.07;1.23;;;;;;;;;;5028012;28;20114;-75
2022/08/20 11:51:46;;;;;;;4.50;1.23;;;;;;;;;;5046677;28;20083;-75
2022/08/20 11:54:12;;;;;;;3.55;1.10;;;;;;;;;;5049841;28;20095;-75
2022/08/20 11:56:38;;;;;;;4.15;1.05;;;;;;;;;;5034977;28;20037;-74
2022/08/20 11:59:04;;;;;;;5.85;1.17;;;;;;;;;;5029573;28;20048;-75
2022/08/20 12:01:30;;;;;;;6.13;1.20;;;;;;;;;;5042538;28;20060;-75
2022/08/20 12:03:56;;;;;;;6.25;1.20;;;;;;;;;;5027245;28;20044;-75
2022/08/20 12:06:22;;;;;;;5.05;1.05;;;;;;;;;;5035129;28;20063;-75
2022/08/20 12:08:48;;;;;;;4.88;1.30;;;;;;;;;;5023464;28;20049;-75
2022/08/20 12:11:14;;;;;;;5.50;1.40;;;;;;;;;;5040195;28;20516;-75
2022/08/20 12:13:40;;;;;;;7.53;1.27;;;;;;;;;;5040795;28;20045;-75
2022/08/20 12:16:06;;;;;;;5.18;1.13;;;;;;;;;;5044886;28;20123;-75
2022/08/20 12:18:33;;;;;;;4.40;1.10;;;;;;;;;;5046312;28;20037;-75
2022/08/20 12:20:59;;;;;;;6.78;1.73;;;;;;;;;;5038418;28;20494;-75
2022/08/20 12:23:25;;;;;;;3.83;1.13;;;;;;;;;;5044054;28;20048;-75
2022/08/20 12:25:51;;;;;;;5.45;1.45;;;;;;;;;;5047502;28;20409;-75
2022/08/20 12:28:17;;;;;;;6.40;1.73;;;;;;;;;;5040010;28;20049;-75
2022/08/20 12:30:43;;;;;;;7.35;1.50;;;;;;;;;;5040957;28;20056;-75
2022/08/20 12:33:09;;;;;;;7.00;1.40;;;;;;;;;;5029822;28;20055;-75
2022/08/20 12:35:35;;;;;;;9.32;1.80;;;;;;;;;;5042719;28;20037;-75
2022/08/20 12:38:04;;;;;;;5.95;1.40;;;;;;;;;;5037922;28;20497;-74
2022/08/20 12:40:30;;;;;;;5.20;1.30;;;;;;;;;;5042304;28;20087;-75
2022/08/20 12:42:56;;;;;;;6.38;1.60;;;;;;;;;;5034833;28;20041;-75
2022/08/20 12:45:22;;;;;;;8.00;1.55;;;;;;;;;;5043323;28;20044;-75
2022/08/20 12:47:48;;;;;;;6.22;1.75;;;;;;;;;;5056320;28;20095;-75
2022/08/20 12:50:20;;;;;;;6.78;1.80;;;;;;;;;;5038524;28;20077;-75
2022/08/20 12:52:47;;;;;;;5.57;1.63;;;;;;;;;;5040879;28;20482;-75
2022/08/20 12:55:14;;;;;;;6.13;1.55;;;;;;;;;;5037658;28;20195;-75
2022/08/20 12:57:42;;;;;;;6.82;1.40;;;;;;;;;;5042388;28;20036;-75
2022/08/20 13:00:09;;;;;;;7.57;1.83;;;;;;;;;;5040940;28;20051;-75
2022/08/20 13:02:37;;;;;;;7.25;1.15;;;;;;;;;;5034803;28;20032;-75
2022/08/20 13:05:03;;;;;;;5.93;1.55;;;;;;;;;;5051189;28;20045;-75
2022/08/20 13:07:30;;;;;;;6.60;1.70;;;;;;;;;;5051154;28;20044;-75
2022/08/20 13:09:56;;;;;;;9.77;1.60;;;;;;;;;;5050903;28;20076;-75
2022/08/20 13:12:22;;;;;;;5.43;1.63;;;;;;;;;;5051155;28;20048;-75
2022/08/20 13:14:48;;;;;;;6.97;1.55;;;;;;;;;;5051053;28;20124;-75
2022/08/20 13:17:16;;;;;;;7.43;1.70;;;;;;;;;;5051439;28;20044;-75
2022/08/20 13:19:43;;;;;;;5.97;1.58;;;;;;;;;;5050737;28;20071;-75
2022/08/20 13:22:10;;;;;;;8.88;1.70;;;;;;;;;;5034722;28;20536;-75
2022/08/20 13:24:36;;;;;;;7.20;1.60;;;;;;;;;;5051539;28;20442;-75
2022/08/20 13:27:07;;;;;;;6.25;1.52;;;;;;;;;;5050824;28;20098;-75
2022/08/20 13:29:33;;;;;;;5.90;1.73;;;;;;;;;;5051346;28;20044;-75
2022/08/20 13:31:59;;;;;;;5.80;1.33;;;;;;;;;;5050985;28;20592;-75
2022/08/20 13:34:25;;;;;;;5.47;1.55;;;;;;;;;;5050875;28;20037;-75
2022/08/20 13:36:51;;;;;;;7.05;1.75;;;;;;;;;;5050480;28;20082;-75
2022/08/20 13:39:17;;;;;;;10.27;1.65;;;;;;;;;;5050881;28;20056;-74
2022/08/20 13:41:44;;;;;;;5.47;1.45;;;;;;;;;;5033837;28;20033;-75
2022/08/20 13:44:10;;;;;;;6.05;1.80;;;;;;;;;;5034232;28;20052;-75
2022/08/20 13:46:36;;;;;;;8.45;1.70;;;;;;;;;;5050996;28;20094;-75
2022/08/20 13:49:02;;;;;;;7.05;1.70;;;;;;;;;;5050515;28;20061;-75
2022/08/20 13:51:28;;;;;;;7.10;1.50;;;;;;;;;;5050673;28;20122;-75
2022/08/20 13:53:54;;;;;;;8.95;1.45;;;;;;;;;;5050614;28;20045;-75
2022/08/20 13:56:20;;;;;;;7.72;1.60;;;;;;;;;;5050851;28;20401;-75
2022/08/20 13:58:46;;;;;;;6.75;1.50;;;;;;;;;;5050396;28;20048;-75
2022/08/20 14:01:12;;;;;;;6.43;1.52;;;;;;;;;;5050475;28;20043;-75
2022/08/20 14:03:38;;;;;;;7.97;1.52;;;;;;;;;;5050756;28;20036;-75
2022/08/20 14:06:04;;;;;;;7.43;1.45;;;;;;;;;;5050285;28;20048;-75
2022/08/20 14:08:30;;;;;;;6.10;1.50;;;;;;;;;;5033901;28;20072;-75
2022/08/20 14:10:57;;;;;;;7.95;1.85;;;;;;;;;;5050730;28;20151;-75
2022/08/20 14:13:24;;;;;;;5.65;1.90;;;;;;;;;;5053921;28;20081;-75
2022/08/20 14:15:51;;;;;;;5.68;1.60;;;;;;;;;;5054606;28;20508;-75
2022/08/20 14:18:17;;;;;;;7.28;1.50;;;;;;;;;;5054571;28;20037;-75
2022/08/20 14:20:44;;;;;;;6.45;1.75;;;;;;;;;;5054482;28;20041;-75
2022/08/20 14:23:10;;;;;;;7.28;1.80;;;;;;;;;;5055615;28;20040;-75
2022/08/20 14:25:36;;;;;;;4.93;1.30;;;;;;;;;;5054342;28;20049;-75
2022/08/20 14:28:16;;;;;;;8.55;1.70;;;;;;;;;;5055380;28;20037;-75
2022/08/20 14:30:43;;;;;;;8.85;1.63;;;;;;;;;;5054258;28;20043;-75
2022/08/20 14:33:09;;;;;;;7.93;1.73;;;;;;;;;;5054062;28;20048;-75
2022/08/20 14:35:36;;;;;;;8.30;1.70;;;;;;;;;;5037448;28;20045;-75
2022/08/20 14:38:02;;;;;;;6.50;1.52;;;;;;;;;;5030482;28;20041;-75
2022/08/20 14:40:28;;;;;;;7.35;1.67;;;;;;;;;;5043485;28;20037;-76
2022/08/20 14:42:55;;;;;;;6.45;1.75;;;;;;;;;;5066914;28;20045;-76
2022/08/20 14:45:21;;;;;;;6.13;1.33;;;;;;;;;;5067885;28;20126;-76